createdAt,value
2023-02-03T00:00:12.595Z,6.80
2023-02-03T00:02:38.990Z,6.84
2023-02-03T00:05:05.775Z,6.76
2023-02-03T00:07:32.125Z,6.73
2023-02-03T00:09:58.494Z,6.79
2023-02-03T00:12:24.952Z,6.81
2023-02-03T00:14:51.284Z,6.85
2023-02-03T00:17:17.645Z,6.82
2023-02-03T00:19:44.006Z,6.79
2023-02-03T00:22:10.350Z,6.83
2023-02-03T00:24:36.679Z,6.78
2023-02-03T00:27:03.152Z,6.78
2023-02-03T00:29:29.506Z,6.76
2023-02-03T00:31:56.079Z,6.73
2023-02-03T00:34:22.525Z,6.73
2023-02-03T00:36:48.842Z,6.78
2023-02-03T00:39:16.279Z,6.77
2023-02-03T00:41:42.706Z,6.71
2023-02-03T00:44:09.130Z,6.75
2023-02-03T00:46:38.455Z,6.72
2023-02-03T00:49:04.909Z,6.62
2023-02-03T00:51:31.874Z,6.61
2023-02-03T00:53:58.244Z,6.61
2023-02-03T00:56:24.624Z,6.65
2023-02-03T00:58:50.973Z,6.61
2023-02-03T01:01:17.837Z,6.69
2023-02-03T01:03:44.316Z,6.63
2023-02-03T01:07:00.863Z,6.58
2023-02-03T01:09:27.243Z,6.49
2023-02-03T01:11:53.590Z,6.60
2023-02-03T01:14:20.034Z,6.57
2023-02-03T01:16:46.507Z,6.59
2023-02-03T01:19:15.737Z,6.60
2023-02-03T01:21:42.430Z,6.63
2023-02-03T01:24:09.636Z,6.65
2023-02-03T01:26:36.332Z,6.71
2023-02-03T01:29:03.206Z,6.71
2023-02-03T01:31:36.905Z,6.71
2023-02-03T01:34:03.802Z,6.72
2023-02-03T01:36:31.917Z,6.75
2023-02-03T01:38:58.287Z,6.71
2023-02-03T01:41:30.589Z,6.75
2023-02-03T01:43:58.783Z,6.72
2023-02-03T01:46:37.008Z,6.73
2023-02-03T01:49:20.533Z,6.72
2023-02-03T01:51:48.753Z,6.73
2023-02-03T01:54:20.628Z,6.83
2023-02-03T01:56:52.179Z,6.79
2023-02-03T01:59:21.557Z,6.80
2023-02-03T02:01:48.902Z,6.84
2023-02-03T02:04:15.736Z,6.89
2023-02-03T02:06:42.301Z,6.89
2023-02-03T02:09:08.964Z,6.91
2023-02-03T02:11:35.240Z,7.01
2023-02-03T02:14:03.381Z,7.03
2023-02-03T02:16:49.388Z,6.95
2023-02-03T02:19:33.888Z,6.96
2023-02-03T02:22:19.331Z,6.96
2023-02-03T02:25:04.644Z,6.92
2023-02-03T02:27:58.017Z,6.93
2023-02-03T02:30:55.073Z,7.02
2023-02-03T02:33:42.763Z,7.02
2023-02-03T02:36:48.898Z,7.10
2023-02-03T02:39:27.454Z,7.06
2023-02-03T02:42:02.870Z,7.03
2023-02-03T02:44:35.995Z,7.02
2023-02-03T02:47:10.841Z,6.97
2023-02-03T02:49:43.369Z,7.04
2023-02-03T02:52:13.906Z,7.00
2023-02-03T02:54:44.958Z,7.10
2023-02-03T02:57:14.817Z,7.17
2023-02-03T02:59:41.290Z,7.08
2023-02-03T03:02:10.592Z,7.14
2023-02-03T03:04:37.359Z,7.12
2023-02-03T03:07:24.376Z,7.11
2023-02-03T03:09:55.227Z,7.04
2023-02-03T03:12:25.468Z,6.96
2023-02-03T03:14:57.482Z,6.90
2023-02-03T03:17:29.959Z,6.91
2023-02-03T03:20:01.691Z,6.89
2023-02-03T03:22:34.716Z,6.87
2023-02-03T03:25:10.628Z,6.87
2023-02-03T03:27:41.123Z,6.89
2023-02-03T03:30:16.730Z,6.90
2023-02-03T03:32:43.495Z,6.91
2023-02-03T03:35:09.998Z,6.87
2023-02-03T03:37:42.816Z,6.88
2023-02-03T03:40:21.560Z,6.91
2023-02-03T03:42:54.551Z,6.88
2023-02-03T03:45:39.180Z,6.91
2023-02-03T03:48:48.008Z,6.92
2023-02-03T03:51:20.153Z,6.96
2023-02-03T03:53:49.658Z,6.91
2023-02-03T03:56:23.107Z,6.94
2023-02-03T03:58:52.583Z,6.93
2023-02-03T04:01:21.019Z,6.87
2023-02-03T04:03:53.634Z,6.91
2023-02-03T04:06:19.968Z,6.89
2023-02-03T04:08:46.354Z,6.97
2023-02-03T04:11:32.749Z,6.91
2023-02-03T04:13:59.091Z,6.93
2023-02-03T04:16:25.466Z,6.98
2023-02-03T04:18:51.823Z,6.98
2023-02-03T04:21:18.168Z,6.98
2023-02-03T04:23:44.511Z,6.96
2023-02-03T04:26:10.867Z,7.01
2023-02-03T04:28:37.342Z,6.94
2023-02-03T04:31:04.484Z,7.00
2023-02-03T04:33:31.063Z,7.03
2023-02-03T04:35:57.491Z,6.99
2023-02-03T04:38:23.954Z,6.96
2023-02-03T04:40:51.229Z,6.99
2023-02-03T04:43:17.627Z,7.00
2023-02-03T04:45:44.037Z,7.05
2023-02-03T04:48:10.369Z,7.04
2023-02-03T04:50:36.705Z,7.05
2023-02-03T04:53:03.063Z,7.00
2023-02-03T04:55:29.379Z,7.03
2023-02-03T04:57:59.565Z,7.01
2023-02-03T05:00:27.265Z,6.96
2023-02-03T05:02:54.394Z,6.99
2023-02-03T05:05:21.006Z,6.95
2023-02-03T05:07:47.369Z,6.95
2023-02-03T05:10:13.697Z,6.99
2023-02-03T05:12:40.009Z,6.97
2023-02-03T05:15:06.754Z,6.96
2023-02-03T05:17:38.646Z,6.96
2023-02-03T05:20:05.886Z,6.93
2023-02-03T05:22:32.239Z,6.92
2023-02-03T05:24:58.554Z,6.95
2023-02-03T05:27:24.867Z,6.98
2023-02-03T05:29:51.168Z,6.98
2023-02-03T05:32:17.476Z,6.96
2023-02-03T05:34:43.887Z,6.93
2023-02-03T05:37:10.180Z,6.93
2023-02-03T05:39:36.522Z,6.91
2023-02-03T05:42:04.259Z,6.89
2023-02-03T05:44:31.119Z,6.95
2023-02-03T05:46:59.252Z,6.90
2023-02-03T05:49:25.890Z,6.92
2023-02-03T05:51:53.496Z,6.94
2023-02-03T05:54:19.822Z,6.95
2023-02-03T05:56:46.182Z,6.94
2023-02-03T05:59:12.583Z,6.92
2023-02-03T06:01:39.137Z,6.96
2023-02-03T06:04:05.869Z,6.95
2023-02-03T06:06:35.422Z,6.94
2023-02-03T06:09:03.461Z,6.93
2023-02-03T06:11:30.128Z,6.96
2023-02-03T06:13:58.605Z,6.93
2023-02-03T06:16:26.753Z,6.94
2023-02-03T06:18:54.576Z,6.98
2023-02-03T06:21:22.232Z,6.99
2023-02-03T06:23:48.660Z,6.97
2023-02-03T06:26:15.317Z,6.98
2023-02-03T06:28:41.811Z,7.00
2023-02-03T06:31:08.395Z,7.03
2023-02-03T06:33:34.876Z,7.04
2023-02-03T06:36:01.362Z,7.01
2023-02-03T06:38:27.716Z,7.06
2023-02-03T06:40:54.064Z,7.09
2023-02-03T06:43:20.420Z,7.06
2023-02-03T06:45:49.481Z,7.08
2023-02-03T06:48:15.894Z,7.12
2023-02-03T06:50:43.189Z,7.18
2023-02-03T06:53:09.608Z,7.13
2023-02-03T06:55:36.065Z,7.15
2023-02-03T06:58:02.451Z,7.13
2023-02-03T07:00:29.087Z,7.16
2023-02-03T07:02:59.596Z,7.24
2023-02-03T07:05:27.674Z,7.19
2023-02-03T07:07:54.298Z,7.25
2023-02-03T07:10:21.397Z,7.20
2023-02-03T07:12:47.960Z,7.20
2023-02-03T07:15:14.308Z,7.20
2023-02-03T07:17:40.793Z,7.27
2023-02-03T07:20:07.740Z,7.31
2023-02-03T07:22:34.167Z,7.27
2023-02-03T07:25:00.540Z,7.33
2023-02-03T07:27:28.006Z,7.29
2023-02-03T07:29:54.396Z,7.29
2023-02-03T07:32:20.742Z,7.25
2023-02-03T07:34:47.049Z,7.26
2023-02-03T07:37:13.354Z,7.29
2023-02-03T07:39:39.692Z,7.26
2023-02-03T07:42:05.981Z,7.30
2023-02-03T07:44:32.287Z,7.31
2023-02-03T07:46:58.677Z,7.38
2023-02-03T07:49:24.972Z,7.38
2023-02-03T07:51:51.281Z,7.35
2023-02-03T07:54:17.720Z,7.36
2023-02-03T07:56:44.094Z,7.39
2023-02-03T07:59:10.458Z,7.37
2023-02-03T08:01:37.435Z,7.42
2023-02-03T08:04:07.097Z,7.43
2023-02-03T08:06:33.864Z,7.44
2023-02-03T08:09:00.284Z,7.35
2023-02-03T08:11:26.811Z,7.42
2023-02-03T08:13:53.176Z,7.45
2023-02-03T08:16:19.649Z,7.49
2023-02-03T08:18:46.106Z,7.47
2023-02-03T08:21:12.487Z,7.57
2023-02-03T08:23:38.867Z,7.60
2023-02-03T08:26:05.696Z,7.61
2023-02-03T08:28:32.198Z,7.57
2023-02-03T08:30:58.575Z,7.61
2023-02-03T08:33:24.994Z,7.62
2023-02-03T08:35:51.557Z,7.66
2023-02-03T08:38:18.163Z,7.69
2023-02-03T08:40:44.598Z,7.71
2023-02-03T08:43:13.993Z,7.75
2023-02-03T08:45:40.776Z,7.76
2023-02-03T08:48:07.266Z,7.75
2023-02-03T08:50:33.680Z,7.81
2023-02-03T08:53:00.043Z,7.83
2023-02-03T08:55:26.490Z,7.89
2023-02-03T08:57:52.882Z,7.89
2023-02-03T09:00:19.816Z,7.93
2023-02-03T09:02:46.127Z,7.93
2023-02-03T09:05:12.612Z,7.98
2023-02-03T09:07:38.980Z,8.01
2023-02-03T09:10:05.500Z,7.98
2023-02-03T09:12:31.893Z,8.02
2023-02-03T09:14:58.314Z,8.03
2023-02-03T09:17:24.666Z,8.03
2023-02-03T09:19:51.035Z,8.06
2023-02-03T09:22:17.375Z,8.07
2023-02-03T09:24:43.922Z,8.08
2023-02-03T09:27:10.448Z,8.17
2023-02-03T09:29:36.810Z,8.06
2023-02-03T09:32:07.668Z,8.19
2023-02-03T09:34:34.224Z,8.18
2023-02-03T09:37:00.632Z,8.21
2023-02-03T09:39:27.055Z,8.26
2023-02-03T09:42:08.123Z,8.33
2023-02-03T09:44:47.106Z,8.26
2023-02-03T09:47:23.182Z,8.25
2023-02-03T09:49:58.122Z,8.27
2023-02-03T09:52:33.758Z,8.31
2023-02-03T09:55:13.306Z,8.24
2023-02-03T09:58:15.074Z,8.33
2023-02-03T10:00:49.633Z,8.43
2023-02-03T10:03:24.855Z,8.46
2023-02-03T10:06:12.131Z,8.48
2023-02-03T10:09:02.968Z,8.54
2023-02-03T10:11:58.392Z,8.58
2023-02-03T10:14:46.180Z,8.62
2023-02-03T10:17:35.604Z,8.65
2023-02-03T10:20:18.149Z,8.67
2023-02-03T10:23:08.136Z,8.70
2023-02-03T10:25:44.093Z,8.78
2023-02-03T10:28:19.067Z,8.83
2023-02-03T10:30:59.805Z,8.84
2023-02-03T10:33:28.354Z,8.83
2023-02-03T10:36:03.993Z,8.88
2023-02-03T10:38:54.353Z,8.83
2023-02-03T10:41:22.012Z,8.95
2023-02-03T10:43:51.849Z,8.99
2023-02-03T10:46:21.949Z,9.01
2023-02-03T10:48:49.327Z,9.02
2023-02-03T10:51:22.032Z,9.01
2023-02-03T10:53:53.323Z,9.08
2023-02-03T10:56:26.659Z,9.06
2023-02-03T10:58:56.445Z,9.12
2023-02-03T11:01:44.501Z,9.13
2023-02-03T11:04:32.051Z,9.16
2023-02-03T11:07:08.261Z,9.04
2023-02-03T11:09:40.592Z,9.12
2023-02-03T11:12:18.813Z,9.09
2023-02-03T11:14:50.285Z,9.04
2023-02-03T11:17:26.955Z,9.08
2023-02-03T11:19:59.740Z,9.11
2023-02-03T11:22:31.833Z,9.11
2023-02-03T11:24:59.452Z,9.16
2023-02-03T11:27:30.217Z,9.13
2023-02-03T11:30:20.426Z,9.10
2023-02-03T11:32:48.427Z,9.17
2023-02-03T11:35:24.092Z,9.20
2023-02-03T11:37:53.467Z,9.27
2023-02-03T11:40:30.868Z,9.33
2023-02-03T11:42:57.229Z,9.29
2023-02-03T11:45:37.421Z,9.37
2023-02-03T11:48:30.806Z,9.40
2023-02-03T11:51:34.661Z,9.32
2023-02-03T11:54:29.119Z,9.31
2023-02-03T11:57:07.680Z,9.38
2023-02-03T11:59:50.800Z,9.38
2023-02-03T12:02:54.980Z,9.33
2023-02-03T12:05:40.984Z,9.28
2023-02-03T12:08:13.128Z,9.25
2023-02-03T12:10:54.128Z,9.25
2023-02-03T12:13:33.721Z,9.19
2023-02-03T12:16:31.136Z,9.14
2023-02-03T12:19:00.543Z,9.21
2023-02-03T12:21:42.728Z,9.28
2023-02-03T12:24:45.375Z,9.27
2023-02-03T12:27:33.320Z,9.19
2023-02-03T12:30:29.632Z,9.30
2023-02-03T12:33:04.892Z,9.35
2023-02-03T12:35:39.250Z,9.31
2023-02-03T12:38:14.869Z,9.34
2023-02-03T12:40:49.268Z,9.33
2023-02-03T12:43:38.873Z,9.37
2023-02-03T12:46:40.779Z,9.42
2023-02-03T12:49:18.946Z,9.39
2023-02-03T12:52:11.930Z,9.45
2023-02-03T12:55:33.043Z,9.43
2023-02-03T12:58:05.174Z,9.40
2023-02-03T13:00:46.164Z,9.40
2023-02-03T13:03:37.946Z,9.33
2023-02-03T13:06:26.421Z,9.37
2023-02-03T13:09:04.864Z,9.43
2023-02-03T13:11:35.935Z,9.35
2023-02-03T13:14:20.411Z,9.38
2023-02-03T13:16:58.600Z,9.37
2023-02-03T13:19:30.511Z,9.40
2023-02-03T13:21:56.820Z,9.39
2023-02-03T13:24:25.710Z,9.35
2023-02-03T13:27:13.961Z,9.46
2023-02-03T13:30:10.508Z,9.42
2023-02-03T13:33:20.222Z,9.41
2023-02-03T13:36:05.330Z,9.46
2023-02-03T13:38:45.152Z,9.40
2023-02-03T13:41:23.093Z,9.43
2023-02-03T13:43:53.154Z,9.49
2023-02-03T13:46:24.103Z,9.41
2023-02-03T13:48:51.593Z,9.41
2023-02-03T13:51:22.402Z,9.42
2023-02-03T13:53:50.684Z,9.45
2023-02-03T13:56:23.241Z,9.45
2023-02-03T13:59:13.945Z,9.49
2023-02-03T14:01:44.397Z,9.52
2023-02-03T14:04:26.018Z,9.47
2023-02-03T14:06:55.283Z,9.39
2023-02-03T14:09:21.532Z,9.35
2023-02-03T14:11:50.661Z,9.32
2023-02-03T14:14:16.980Z,9.35
2023-02-03T14:16:47.565Z,9.23
2023-02-03T14:19:34.112Z,9.27
2023-02-03T14:22:17.012Z,9.14
2023-02-03T14:24:46.996Z,9.16
2023-02-03T14:27:21.306Z,9.23
2023-02-03T14:30:05.079Z,9.14
2023-02-03T14:32:49.863Z,9.03
2023-02-03T14:35:21.591Z,8.93
2023-02-03T14:37:57.380Z,8.99
2023-02-03T14:40:48.027Z,8.99
2023-02-03T14:43:34.990Z,8.87
2023-02-03T14:46:35.656Z,8.97
2023-02-03T14:49:17.047Z,8.94
2023-02-03T14:52:15.809Z,8.98
2023-02-03T14:55:01.998Z,8.93
2023-02-03T14:57:48.921Z,8.94
2023-02-03T15:00:25.359Z,8.92
2023-02-03T15:03:09.942Z,8.91
2023-02-03T15:05:40.730Z,8.87
2023-02-03T15:08:36.930Z,8.91
2023-02-03T15:11:35.480Z,9.00
2023-02-03T15:14:34.257Z,9.02
2023-02-03T15:17:02.943Z,9.00
2023-02-03T15:19:38.434Z,8.95
2023-02-03T15:22:19.766Z,9.02
2023-02-03T15:24:46.329Z,9.06
2023-02-03T15:27:27.716Z,9.08
2023-02-03T15:29:54.564Z,9.03
2023-02-03T15:32:29.283Z,9.04
2023-02-03T15:34:58.452Z,9.05
2023-02-03T15:37:33.849Z,9.04
2023-02-03T15:40:17.836Z,9.03
2023-02-03T15:43:23.187Z,9.01
2023-02-03T15:45:58.888Z,9.01
2023-02-03T15:48:49.021Z,9.03
2023-02-03T15:51:31.576Z,8.98
2023-02-03T15:54:30.366Z,8.96
2023-02-03T15:57:05.324Z,9.04
2023-02-03T15:59:36.558Z,9.07
2023-02-03T16:02:16.452Z,9.02
2023-02-03T16:04:43.791Z,8.94
2023-02-03T16:07:28.971Z,8.97
2023-02-03T16:09:57.461Z,8.95
2023-02-03T16:12:31.868Z,9.04
2023-02-03T16:15:00.321Z,9.06
2023-02-03T16:17:39.160Z,8.99
2023-02-03T16:20:11.676Z,8.96
2023-02-03T16:22:40.692Z,8.99
2023-02-03T16:25:24.711Z,9.05
2023-02-03T16:28:32.614Z,8.95
2023-02-03T16:31:21.320Z,9.05
2023-02-03T16:34:08.454Z,8.96
2023-02-03T16:36:58.794Z,9.01
2023-02-03T16:39:45.464Z,8.96
2023-02-03T16:42:34.912Z,8.84
2023-02-03T16:45:20.738Z,8.99
2023-02-03T16:48:06.013Z,8.90
2023-02-03T16:50:52.802Z,8.99
2023-02-03T16:53:28.111Z,8.84
2023-02-03T16:55:56.735Z,8.86
2023-02-03T16:58:23.891Z,8.89
2023-02-03T17:00:52.392Z,8.88
2023-02-03T17:03:21.221Z,8.83
2023-02-03T17:05:48.732Z,8.83
2023-02-03T17:08:16.680Z,8.85
2023-02-03T17:10:44.898Z,8.91
2023-02-03T17:13:11.573Z,8.87
2023-02-03T17:15:43.192Z,8.89
2023-02-03T17:18:09.855Z,8.87
2023-02-03T17:20:37.006Z,8.94
2023-02-03T17:23:03.981Z,8.93
2023-02-03T17:25:33.193Z,8.77
2023-02-03T17:27:59.549Z,8.87
2023-02-03T17:30:26.368Z,8.96
2023-02-03T17:32:52.703Z,8.91
2023-02-03T17:35:19.092Z,8.80
2023-02-03T17:37:45.409Z,8.86
2023-02-03T17:53:56.784Z,8.92
2023-02-03T17:56:25.328Z,8.90
2023-02-03T17:58:56.556Z,9.00
2023-02-03T18:01:24.911Z,8.99
2023-02-03T18:04:00.269Z,8.94
2023-02-03T18:06:28.775Z,8.82
2023-02-03T18:09:01.106Z,8.88
2023-02-03T18:11:29.617Z,8.79
2023-02-03T18:13:56.507Z,8.75
2023-02-03T18:16:29.268Z,8.74
2023-02-03T18:18:56.207Z,8.71
2023-02-03T18:21:26.119Z,8.72
2023-02-03T18:23:56.830Z,8.61
2023-02-03T18:26:23.162Z,8.61
2023-02-03T18:28:53.080Z,8.59
2023-02-03T18:31:20.151Z,8.46
2023-02-03T18:33:47.729Z,8.42
2023-02-03T18:36:16.458Z,8.43
2023-02-03T18:38:45.234Z,8.34
2023-02-03T18:41:21.791Z,8.40
2023-02-03T18:43:49.193Z,8.34
2023-02-03T18:46:21.267Z,8.45
2023-02-03T18:48:47.977Z,8.39
2023-02-03T18:51:17.248Z,8.36
2023-02-03T18:53:46.565Z,8.31
2023-02-03T18:56:22.258Z,8.30
2023-02-03T18:58:48.963Z,8.34
2023-02-03T19:01:26.722Z,8.37
2023-02-03T19:03:58.317Z,8.34
2023-02-03T19:06:26.944Z,8.21
2023-02-03T19:08:53.287Z,8.26
2023-02-03T19:11:20.012Z,8.16
2023-02-03T19:13:46.421Z,8.19
2023-02-03T19:16:16.684Z,8.19
2023-02-03T19:18:44.364Z,8.26
2023-02-03T19:21:11.795Z,8.22
2023-02-03T19:23:39.050Z,8.29
2023-02-03T19:26:05.601Z,8.22
2023-02-03T19:28:33.589Z,8.23
2023-02-03T19:31:08.277Z,8.19
2023-02-03T19:33:35.890Z,8.11
2023-02-03T19:36:03.023Z,8.10
2023-02-03T19:38:29.398Z,8.11
2023-02-03T19:40:55.893Z,8.03
2023-02-03T19:43:22.254Z,8.01
2023-02-03T19:45:48.713Z,8.00
2023-02-03T19:48:15.043Z,8.12
2023-02-03T19:50:45.706Z,8.11
2023-02-03T19:53:16.353Z,8.09
2023-02-03T19:55:43.905Z,8.08
2023-02-03T19:58:10.891Z,8.26
2023-02-03T20:00:37.262Z,8.26
2023-02-03T20:03:04.154Z,8.25
2023-02-03T20:05:30.562Z,8.37
2023-02-03T20:07:56.929Z,8.35
2023-02-03T20:10:26.169Z,8.29
2023-02-03T20:12:53.848Z,8.34
2023-02-03T20:15:20.595Z,8.31
2023-02-03T20:17:47.057Z,8.23
2023-02-03T20:20:13.460Z,8.29
2023-02-03T20:22:40.009Z,8.26
2023-02-03T20:25:06.781Z,8.33
2023-02-03T20:27:33.142Z,8.30
2023-02-03T20:29:59.503Z,8.22
2023-02-03T20:32:25.895Z,8.25
2023-02-03T20:34:52.220Z,8.11
2023-02-03T20:37:19.461Z,8.23
2023-02-03T20:39:45.815Z,8.11
2023-02-03T20:42:17.752Z,8.13
2023-02-03T20:44:44.576Z,8.19
2023-02-03T20:47:22.001Z,8.13
2023-02-03T20:49:49.487Z,8.10
2023-02-03T20:52:20.711Z,8.13
2023-02-03T20:54:47.883Z,8.10
2023-02-03T20:57:19.206Z,8.28
2023-02-03T20:59:46.119Z,8.31
2023-02-03T21:02:23.056Z,8.35
2023-02-03T21:04:59.788Z,8.33
2023-02-03T21:07:32.777Z,8.27
2023-02-03T21:09:59.974Z,8.27
2023-02-03T21:12:28.380Z,8.17
2023-02-03T21:14:55.067Z,8.13
2023-02-03T21:17:26.555Z,8.15
2023-02-03T21:19:54.581Z,8.05
2023-02-03T21:22:23.896Z,8.10
2023-02-03T21:24:52.551Z,7.96
2023-02-03T21:27:29.530Z,8.10
2023-02-03T21:29:57.751Z,8.13
2023-02-03T21:32:37.209Z,8.19
2023-02-03T21:35:24.350Z,8.11
2023-02-03T21:37:56.837Z,8.20
2023-02-03T21:40:26.340Z,8.25
2023-02-03T21:42:53.596Z,8.31
2023-02-03T21:45:19.880Z,8.24
2023-02-03T21:47:49.183Z,8.16
2023-02-03T21:50:36.431Z,8.12
2023-02-03T21:53:08.782Z,8.19
2023-02-03T21:55:39.586Z,8.31
2023-02-03T21:58:12.037Z,8.30
2023-02-03T22:00:43.213Z,8.24
2023-02-03T22:03:19.033Z,8.25
2023-02-03T22:05:45.743Z,8.27
2023-02-03T22:08:22.778Z,8.29
2023-02-03T22:10:50.027Z,8.24
2023-02-03T22:13:16.454Z,8.32
2023-02-03T22:15:43.163Z,8.32
2023-02-03T22:18:09.549Z,8.43
2023-02-03T22:20:35.972Z,8.31
2023-02-03T22:23:02.419Z,8.38
2023-02-03T22:25:28.717Z,8.38
2023-02-03T22:27:55.104Z,8.26
2023-02-03T22:30:21.476Z,8.34
2023-02-03T22:32:47.755Z,8.37
2023-02-03T22:35:14.146Z,8.44
2023-02-03T22:37:40.494Z,8.36
2023-02-03T22:40:07.175Z,8.43
2023-02-03T22:42:33.530Z,8.40
2023-02-03T22:44:59.856Z,8.39
2023-02-03T22:47:26.366Z,8.30
2023-02-03T22:49:52.779Z,8.16
2023-02-03T22:52:19.085Z,8.22
2023-02-03T22:54:45.355Z,8.23
2023-02-03T22:57:11.661Z,8.10
2023-02-03T22:59:37.978Z,8.14
2023-02-03T23:02:04.296Z,8.12
2023-02-03T23:04:30.646Z,8.07
2023-02-03T23:06:56.938Z,8.16
2023-02-03T23:09:23.263Z,8.17
2023-02-03T23:11:49.660Z,8.17
2023-02-03T23:14:16.809Z,8.07
2023-02-03T23:16:43.513Z,8.04
2023-02-03T23:19:09.818Z,8.11
2023-02-03T23:21:36.135Z,7.97
2023-02-03T23:24:02.433Z,7.90
2023-02-03T23:26:28.829Z,7.88
2023-02-03T23:28:55.241Z,7.82
2023-02-03T23:31:21.628Z,7.79
2023-02-03T23:34:06.367Z,7.81
2023-02-03T23:36:33.267Z,7.71
2023-02-03T23:38:59.633Z,7.64
2023-02-03T23:41:25.985Z,7.79
2023-02-03T23:43:52.287Z,7.83
2023-02-03T23:46:18.672Z,8.07
2023-02-03T23:48:45.012Z,8.14
2023-02-03T23:51:11.301Z,8.22
2023-02-03T23:53:37.596Z,8.31
2023-02-03T23:56:04.058Z,8.33
2023-02-03T23:58:30.356Z,8.31
